Cedar Falls, IA

9:42 AM CDT on July 28, 2015 (GMT -0500)
Waterloo, IowaGenerators.com | | Change Station
CLOSE
Current Station
Personal Weather Station
Location: Waterloo, IA
Elevation: 886 ft
Nearby Weather Stations

Elev 886 ft 42.47 °N, 92.42 °W | Updated 19 seconds ago

Partly Cloudy
Partly Cloudy
73.9 °F
Feels Like 70 °F
N
4.0
Wind Variable Wind from NW
Gusts 14.0 mph

Today
High -- | Low -- °F
--% Chance of Precip.
Yesterday
High -- | Low -- °F
Precip. -- in
5:57 AM 8:34 PM
Waxing Gibbous, 90% visible
Pressure 29.99 in
Visibility 1.8 miles
Clouds Few 900 ft
Scattered Clouds 1500 ft
Mostly Cloudy 7000 ft
Heat Index 70 °F
Dew Point 73 °F
Humidity 97%
Rainfall 0.72 in
Snow Depth Not available.
UV 3 out of 12
Pollen 2.60 out of 12
Air Quality Not available.
Flu Activity Not available.
SPECI KALO 281437Z AUTO 29021G30KT 1 3/4SM R12/2600VP6000FT TS BR FEW009 SCT015 BKN070 23/22 A2999 RMK AO2 PK WND 27030/1436 LTG DSNT ALQDS TSB36 PRESRR T02330222

More Conditions Fewer Conditions

Pressure 29.99 in
Visibility 1.8 miles
Clouds Few 900 ft
Scattered Clouds 1500 ft
Mostly Cloudy 7000 ft
Heat Index 70 °F
Dew Point 73 °F
Humidity 97%
Rainfall 0.72 in
Snow Depth Not available.
UV 3 out of 12
Pollen 2.60 out of 12
Air Quality Not available.
Flu Activity Not available.
SPECI KALO 281437Z AUTO 29021G30KT 1 3/4SM R12/2600VP6000FT TS BR FEW009 SCT015 BKN070 23/22 A2999 RMK AO2 PK WND 27030/1436 LTG DSNT ALQDS TSB36 PRESRR T02330222

More Conditions Fewer Conditions

10-Day Weather Forecast

×

Almanac

Astronomy

Jul. 28, 2015 Rise Set
Actual Time
Civil Twilight
Nautical Twilight
Astronomical Twilight
Moon
Length of Visible Light
Length of Day
Tomorrow will be .
, % of the Moon is Illuminated

Today's Extremes

State Highs State Lows

Community

WunderPhotos

Upload Photos

1,841,837 photos uploaded!

WunderBlogs® & News

Nearby

Air Quality

  Air Quality AQ Index Pollutant
Not available.

Snow Depth

Station Depth Elevation

Earthquake Activity

City Distance Mag. Time & Date
Minimum magnitude displayed is 2.5.

Coastal Water Temperatures

Place Temperature

Stations

Nearby Weather Stations

Station Location Temp. Windchill Dew Point Humidity Wind Precip. Elev Updated Type